createdAt,value
2022-11-30T00:01:32.383Z,25.80
2022-11-30T00:04:00.457Z,21.70
2022-11-30T00:06:28.603Z,25.10
2022-11-30T00:08:58.057Z,23.70
2022-11-30T00:11:28.645Z,22.70
2022-11-30T00:13:56.768Z,26.60
2022-11-30T00:16:25.537Z,28.60
2022-11-30T00:18:53.671Z,24.50
2022-11-30T00:21:21.742Z,23.10
2022-11-30T00:23:51.359Z,25.70
2022-11-30T00:26:22.151Z,23.60
2022-11-30T00:28:50.959Z,22.30
2022-11-30T00:31:20.042Z,21.60
2022-11-30T00:33:48.797Z,23.50
2022-11-30T00:36:19.424Z,22.10
2022-11-30T00:38:48.497Z,21.10
2022-11-30T00:41:16.849Z,19.30
2022-11-30T00:43:45.408Z,20.40
2022-11-30T00:46:14.258Z,19.20
2022-11-30T00:48:42.740Z,22.00
2022-11-30T00:51:12.905Z,23.90
2022-11-30T00:53:41.746Z,25.20
2022-11-30T00:56:10.792Z,24.50
2022-11-30T00:58:38.872Z,25.80
2022-11-30T01:01:08.247Z,23.50
2022-11-30T01:03:37.191Z,23.60
2022-11-30T01:06:07.722Z,22.10
2022-11-30T01:08:36.234Z,21.60
2022-11-30T01:11:12.973Z,24.30
2022-11-30T01:13:41.252Z,24.50
2022-11-30T01:16:12.247Z,21.50
2022-11-30T01:18:40.567Z,20.00
2022-11-30T01:21:10.919Z,22.50
2022-11-30T01:23:39.556Z,21.90
2022-11-30T01:26:08.197Z,22.30
2022-11-30T01:28:36.575Z,23.00
2022-11-30T01:31:10.868Z,23.90
2022-11-30T01:33:40.214Z,23.90
2022-11-30T01:36:15.176Z,24.40
2022-11-30T01:38:53.100Z,26.60
2022-11-30T01:41:25.377Z,28.90
2022-11-30T01:43:56.084Z,26.50
2022-11-30T01:46:29.121Z,27.20
2022-11-30T01:49:02.682Z,27.50
2022-11-30T01:51:36.693Z,28.10
2022-11-30T01:54:08.989Z,30.10
2022-11-30T01:56:55.850Z,34.30
2022-11-30T01:59:25.557Z,33.40
2022-11-30T02:01:55.020Z,33.20
2022-11-30T02:04:29.830Z,34.10
2022-11-30T02:06:59.935Z,31.60
2022-11-30T02:09:29.676Z,30.60
2022-11-30T02:11:57.696Z,32.60
2022-11-30T02:14:45.380Z,31.40
2022-11-30T02:17:36.655Z,31.80
2022-11-30T02:20:25.187Z,32.50
2022-11-30T02:22:53.716Z,34.10
2022-11-30T02:25:43.303Z,34.60
2022-11-30T02:28:36.206Z,37.20
2022-11-30T02:31:08.892Z,34.40
2022-11-30T02:33:39.452Z,35.00
2022-11-30T02:36:10.118Z,34.80
2022-11-30T02:38:39.357Z,34.40
2022-11-30T02:41:07.593Z,35.90
2022-11-30T02:43:36.052Z,32.80
2022-11-30T02:46:11.642Z,32.20
2022-11-30T02:48:46.511Z,32.00
2022-11-30T02:51:20.201Z,32.70
2022-11-30T02:53:49.030Z,32.10
2022-11-30T02:56:17.934Z,34.30
2022-11-30T02:58:46.104Z,35.50
2022-11-30T03:01:14.555Z,30.00
2022-11-30T03:03:42.729Z,34.10
2022-11-30T03:06:11.144Z,33.10
2022-11-30T03:08:39.235Z,31.60
2022-11-30T03:11:07.227Z,28.30
2022-11-30T03:13:35.374Z,31.20
2022-11-30T03:16:13.523Z,31.20
2022-11-30T03:18:41.695Z,31.90
2022-11-30T03:21:11.408Z,32.20
2022-11-30T03:23:39.993Z,30.90
2022-11-30T03:26:08.967Z,30.70
2022-11-30T03:28:37.781Z,30.80
2022-11-30T03:31:06.019Z,30.10
2022-11-30T03:33:34.068Z,29.80
2022-11-30T03:36:05.387Z,32.10
2022-11-30T03:38:33.554Z,31.30
2022-11-30T03:41:12.188Z,29.90
2022-11-30T03:43:41.087Z,27.70
2022-11-30T03:46:09.205Z,29.00
2022-11-30T03:48:37.576Z,26.60
2022-11-30T03:51:06.045Z,26.50
2022-11-30T03:53:34.652Z,28.30
2022-11-30T03:56:05.360Z,27.90
2022-11-30T03:58:33.938Z,24.40
2022-11-30T04:01:04.534Z,30.10
2022-11-30T04:03:33.734Z,26.70
2022-11-30T04:06:03.590Z,27.90
2022-11-30T04:08:32.661Z,30.30
2022-11-30T04:11:02.017Z,31.80
2022-11-30T04:13:31.573Z,32.60
2022-11-30T04:16:00.274Z,32.80
2022-11-30T04:18:30.267Z,30.70
2022-11-30T04:21:00.496Z,30.60
2022-11-30T04:23:38.793Z,29.80
2022-11-30T04:26:10.763Z,30.80
2022-11-30T04:28:38.806Z,30.80
2022-11-30T04:31:07.351Z,28.20
2022-11-30T04:33:35.870Z,29.70
2022-11-30T04:36:06.358Z,33.60
2022-11-30T04:38:36.420Z,31.20
2022-11-30T04:41:08.548Z,31.10
2022-11-30T04:43:37.295Z,31.50
2022-11-30T04:46:06.574Z,30.30
2022-11-30T04:48:35.423Z,33.10
2022-11-30T04:51:06.249Z,33.10
2022-11-30T04:53:35.802Z,34.10
2022-11-30T04:56:09.147Z,33.90
2022-11-30T04:58:39.147Z,33.50
2022-11-30T05:01:08.282Z,33.50
2022-11-30T05:03:36.410Z,31.70
2022-11-30T05:06:05.076Z,33.80
2022-11-30T05:08:33.121Z,32.70
2022-11-30T05:11:01.202Z,31.20
2022-11-30T05:13:29.249Z,33.30
2022-11-30T05:15:57.235Z,31.90
2022-11-30T05:18:32.111Z,32.50
2022-11-30T05:21:00.327Z,31.60
2022-11-30T05:23:28.950Z,32.40
2022-11-30T05:25:57.175Z,34.80
2022-11-30T05:28:25.465Z,37.00
2022-11-30T05:30:53.495Z,36.40
2022-11-30T05:33:21.662Z,32.40
2022-11-30T05:35:49.639Z,32.90
2022-11-30T05:38:18.516Z,30.20
2022-11-30T05:40:46.922Z,30.10
2022-11-30T05:43:15.120Z,29.20
2022-11-30T05:45:43.259Z,28.70
2022-11-30T05:48:11.329Z,29.40
2022-11-30T05:50:39.492Z,28.40
2022-11-30T05:53:07.929Z,27.60
2022-11-30T05:55:36.408Z,27.80
2022-11-30T05:58:04.498Z,28.00
2022-11-30T06:00:32.613Z,28.70
2022-11-30T06:03:00.809Z,30.50
2022-11-30T06:05:29.186Z,27.30
2022-11-30T06:07:59.805Z,27.10
2022-11-30T06:10:28.119Z,31.40
2022-11-30T06:12:56.516Z,31.60
2022-11-30T06:15:24.904Z,27.50
2022-11-30T06:17:55.520Z,32.80
2022-11-30T06:20:23.909Z,33.40
2022-11-30T06:22:52.210Z,33.90
2022-11-30T06:25:20.318Z,33.20
2022-11-30T06:27:48.435Z,34.10
2022-11-30T06:30:16.782Z,36.40
2022-11-30T06:32:49.708Z,35.80
2022-11-30T06:35:18.983Z,24.50
2022-11-30T06:37:47.122Z,32.20
2022-11-30T06:40:15.516Z,32.20
2022-11-30T06:42:43.879Z,32.10
2022-11-30T06:45:12.618Z,31.60
2022-11-30T06:47:40.789Z,26.30
2022-11-30T06:50:14.453Z,24.60
2022-11-30T06:52:42.634Z,30.90
2022-11-30T06:55:11.292Z,31.60
2022-11-30T06:57:39.456Z,26.70
2022-11-30T07:00:08.521Z,28.40
2022-11-30T07:02:36.998Z,27.60
2022-11-30T07:05:06.240Z,26.80
2022-11-30T07:07:34.671Z,29.60
2022-11-30T07:10:02.899Z,30.30
2022-11-30T07:12:30.871Z,30.90
2022-11-30T07:14:58.812Z,30.30
2022-11-30T07:17:27.078Z,30.50
2022-11-30T07:19:55.013Z,32.10
2022-11-30T07:22:23.213Z,32.00
2022-11-30T07:25:09.673Z,31.50
2022-11-30T07:27:37.813Z,34.10
2022-11-30T07:30:06.548Z,35.60
2022-11-30T07:32:34.762Z,30.70
2022-11-30T07:35:02.736Z,34.30
2022-11-30T07:37:30.901Z,34.50
2022-11-30T07:39:58.939Z,40.90
2022-11-30T07:42:27.013Z,35.10
2022-11-30T07:44:58.815Z,29.40
2022-11-30T07:47:27.866Z,31.80
2022-11-30T07:49:56.563Z,32.50
2022-11-30T07:52:24.964Z,35.20
2022-11-30T07:54:53.288Z,33.60
2022-11-30T07:57:21.448Z,35.90
2022-11-30T07:59:49.780Z,37.50
2022-11-30T08:02:18.644Z,36.10
2022-11-30T08:04:47.848Z,37.60
2022-11-30T08:07:18.374Z,37.60
2022-11-30T08:09:46.389Z,36.30
2022-11-30T08:12:14.526Z,31.50
2022-11-30T08:15:17.427Z,35.10
2022-11-30T08:17:30.823Z,33.70
2022-11-30T08:20:00.590Z,37.60
2022-11-30T08:22:29.021Z,36.60
2022-11-30T08:24:57.277Z,40.80
2022-11-30T08:27:25.338Z,39.10
2022-11-30T08:29:53.626Z,43.00
2022-11-30T08:32:21.794Z,43.60
2022-11-30T08:34:50.328Z,40.00
2022-11-30T08:37:18.661Z,37.70
2022-11-30T08:39:46.887Z,37.00
2022-11-30T08:42:14.999Z,37.50
2022-11-30T08:44:43.202Z,39.10
2022-11-30T08:47:11.260Z,34.80
2022-11-30T08:49:39.298Z,39.00
2022-11-30T08:52:22.682Z,34.30
2022-11-30T08:54:51.379Z,30.70
2022-11-30T08:57:21.453Z,37.90
2022-11-30T08:59:49.879Z,37.50
2022-11-30T09:02:19.983Z,38.40
2022-11-30T09:04:49.555Z,40.80
2022-11-30T09:07:18.101Z,41.10
2022-11-30T09:09:46.320Z,49.30
2022-11-30T09:12:14.669Z,48.40
2022-11-30T09:14:43.074Z,51.30
2022-11-30T09:17:11.545Z,46.80
2022-11-30T09:19:40.432Z,49.40
2022-11-30T09:22:08.574Z,47.00
2022-11-30T09:24:38.406Z,47.60
2022-11-30T09:27:06.896Z,42.30
2022-11-30T09:29:37.085Z,38.50
2022-11-30T09:32:05.729Z,31.40
2022-11-30T09:34:34.270Z,34.60
2022-11-30T09:37:02.646Z,29.80
2022-11-30T09:39:31.068Z,33.10
2022-11-30T09:42:05.378Z,34.10
2022-11-30T09:44:58.747Z,33.60
2022-11-30T09:47:42.126Z,27.90
2022-11-30T09:50:18.589Z,31.00
2022-11-30T09:52:51.878Z,29.30
2022-11-30T09:55:41.265Z,31.30
2022-11-30T09:58:23.917Z,29.90
2022-11-30T10:00:52.101Z,24.20
2022-11-30T10:03:22.490Z,27.40
2022-11-30T10:06:05.250Z,27.80
2022-11-30T10:08:50.723Z,30.20
2022-11-30T10:11:22.385Z,27.60
2022-11-30T10:14:17.931Z,29.10
2022-11-30T10:16:52.350Z,29.60
2022-11-30T10:19:45.556Z,27.00
2022-11-30T10:22:38.579Z,27.40
2022-11-30T10:25:21.083Z,27.90
2022-11-30T10:28:18.080Z,22.90
2022-11-30T10:30:54.149Z,26.80
2022-11-30T10:33:38.331Z,29.70
2022-11-30T10:36:24.255Z,26.10
2022-11-30T10:39:22.351Z,28.00
2022-11-30T10:42:10.000Z,23.90
2022-11-30T10:44:45.224Z,29.10
2022-11-30T10:47:22.750Z,30.00
2022-11-30T10:49:52.965Z,29.90
2022-11-30T10:52:29.502Z,28.70
2022-11-30T10:55:04.250Z,35.20
2022-11-30T10:57:34.044Z,34.00
2022-11-30T11:00:06.483Z,31.50
2022-11-30T11:02:42.714Z,22.80
2022-11-30T11:05:24.084Z,30.50
2022-11-30T11:08:24.907Z,27.40
2022-11-30T11:10:57.888Z,25.40
2022-11-30T11:13:43.925Z,31.40
2022-11-30T11:16:14.285Z,33.90
2022-11-30T11:18:57.344Z,33.90
2022-11-30T11:21:25.716Z,33.50
2022-11-30T11:23:56.637Z,34.60
2022-11-30T11:26:30.439Z,32.90
2022-11-30T11:29:02.859Z,34.00
2022-11-30T11:31:49.181Z,28.10
2022-11-30T11:34:31.990Z,31.60
2022-11-30T11:37:45.551Z,28.00
2022-11-30T11:40:17.712Z,25.30
2022-11-30T11:42:50.221Z,24.20
2022-11-30T11:45:22.184Z,27.00
2022-11-30T11:48:05.736Z,26.70
2022-11-30T11:53:44.052Z,26.90
2022-11-30T11:56:26.875Z,26.60
2022-11-30T11:59:10.860Z,25.90
2022-11-30T12:01:54.283Z,25.50
2022-11-30T12:04:32.345Z,25.10
2022-11-30T12:07:05.070Z,25.70
2022-11-30T12:10:43.510Z,25.40
2022-11-30T12:13:12.532Z,21.20
2022-11-30T12:16:01.329Z,21.70
2022-11-30T12:18:50.158Z,21.70
2022-11-30T12:21:24.789Z,20.20
2022-11-30T12:24:05.421Z,19.00
2022-11-30T12:26:49.425Z,17.00
2022-11-30T12:29:56.745Z,18.60
2022-11-30T12:32:55.311Z,19.10
2022-11-30T12:35:38.742Z,19.30
2022-11-30T12:38:21.253Z,21.10
2022-11-30T12:41:27.483Z,22.40
2022-11-30T12:46:43.248Z,21.90
2022-11-30T12:49:16.261Z,20.80
2022-11-30T12:52:14.122Z,21.50
2022-11-30T12:54:48.546Z,20.70
2022-11-30T12:57:18.782Z,21.80
2022-11-30T13:00:00.716Z,21.90
2022-11-30T13:02:58.917Z,21.40
2022-11-30T13:05:36.689Z,19.90
2022-11-30T13:08:20.094Z,20.80
2022-11-30T13:10:54.623Z,18.50
2022-11-30T13:13:29.174Z,19.20
2022-11-30T13:15:59.984Z,16.90
2022-11-30T13:18:28.914Z,19.30
2022-11-30T13:21:06.795Z,17.20
2022-11-30T13:23:47.636Z,20.10
2022-11-30T13:26:40.712Z,19.70
2022-11-30T13:29:35.171Z,18.40
2022-11-30T13:32:34.018Z,19.40
2022-11-30T13:35:29.027Z,17.60
2022-11-30T13:41:09.201Z,17.30
2022-11-30T13:43:45.846Z,20.70
2022-11-30T13:46:23.844Z,17.80
2022-11-30T13:49:18.111Z,17.30
2022-11-30T13:52:01.450Z,18.10
2022-11-30T13:54:51.451Z,17.50
2022-11-30T13:57:20.059Z,15.40
2022-11-30T13:59:53.961Z,14.10
2022-11-30T14:02:32.176Z,15.90
2022-11-30T14:05:19.307Z,16.90
2022-11-30T14:08:10.422Z,15.40
2022-11-30T14:10:43.355Z,14.60
2022-11-30T14:13:11.576Z,14.70
2022-11-30T14:15:39.786Z,14.50
2022-11-30T14:18:07.950Z,15.50
2022-11-30T14:21:02.584Z,14.30
2022-11-30T14:23:37.189Z,14.90
2022-11-30T14:26:19.955Z,14.00
2022-11-30T14:29:03.400Z,16.20
2022-11-30T14:31:37.605Z,15.60
2022-11-30T14:34:21.557Z,16.40
2022-11-30T14:36:57.180Z,17.30
2022-11-30T14:39:37.151Z,17.70
2022-11-30T14:42:06.751Z,17.90
2022-11-30T14:44:37.134Z,18.80
2022-11-30T14:47:19.956Z,16.50
2022-11-30T14:49:55.291Z,16.90
2022-11-30T14:52:41.971Z,15.70
2022-11-30T14:55:34.153Z,16.30
2022-11-30T14:58:44.706Z,16.20
2022-11-30T15:01:32.934Z,13.70
2022-11-30T15:04:14.244Z,15.30
2022-11-30T15:06:44.291Z,14.10
2022-11-30T15:09:22.439Z,14.70
2022-11-30T15:11:53.354Z,13.10
2022-11-30T15:14:22.421Z,13.50
2022-11-30T15:16:57.398Z,12.40
2022-11-30T15:19:27.541Z,13.30
2022-11-30T15:21:58.449Z,12.90
2022-11-30T15:24:29.907Z,13.20
2022-11-30T15:27:10.634Z,14.30
2022-11-30T15:29:45.138Z,16.10
2022-11-30T15:32:20.321Z,17.00
2022-11-30T15:35:01.088Z,17.80
2022-11-30T15:37:35.431Z,21.10
2022-11-30T15:40:07.186Z,20.40
2022-11-30T15:42:41.129Z,20.70
2022-11-30T15:45:25.705Z,20.30
2022-11-30T15:47:56.365Z,18.00
2022-11-30T15:50:31.123Z,19.30
2022-11-30T15:55:51.815Z,21.30
2022-11-30T15:58:32.938Z,16.50
2022-11-30T16:01:03.662Z,18.10
2022-11-30T16:03:35.064Z,20.10
2022-11-30T16:06:06.009Z,21.80
2022-11-30T16:08:34.918Z,25.30
2022-11-30T16:11:08.008Z,21.90
2022-11-30T16:13:37.038Z,22.30
2022-11-30T16:16:12.499Z,21.00
2022-11-30T16:18:41.591Z,20.20
2022-11-30T16:21:13.141Z,18.50
2022-11-30T16:23:41.756Z,16.80
2022-11-30T16:26:36.071Z,18.40
2022-11-30T16:29:04.961Z,18.10
2022-11-30T16:31:35.453Z,17.10
2022-11-30T16:34:04.451Z,16.80
2022-11-30T16:36:37.107Z,18.20
2022-11-30T16:39:06.107Z,19.30
2022-11-30T16:41:35.123Z,16.50
2022-11-30T16:44:12.518Z,18.10
2022-11-30T16:46:40.971Z,19.80
2022-11-30T16:49:09.149Z,20.20
2022-11-30T16:51:37.659Z,21.50
2022-11-30T16:54:06.161Z,16.40
2022-11-30T16:56:34.576Z,19.10
2022-11-30T16:59:02.905Z,18.50
2022-11-30T17:01:41.730Z,17.30
2022-11-30T17:04:19.514Z,18.20
2022-11-30T17:06:50.546Z,17.80
2022-11-30T17:09:21.413Z,16.40
2022-11-30T17:11:50.820Z,17.40
2022-11-30T17:14:20.730Z,15.50
2022-11-30T17:16:49.370Z,15.20
2022-11-30T17:19:17.892Z,16.70
2022-11-30T17:21:46.129Z,15.90
2022-11-30T17:24:14.710Z,17.60
2022-11-30T17:26:43.027Z,17.70
2022-11-30T17:29:11.362Z,17.50
2022-11-30T17:31:39.498Z,18.40
2022-11-30T17:34:11.629Z,18.00
2022-11-30T17:36:40.201Z,19.00
2022-11-30T17:39:09.054Z,19.50
2022-11-30T17:41:37.321Z,16.10
2022-11-30T17:44:05.658Z,19.90
2022-11-30T17:46:34.683Z,20.30
2022-11-30T17:49:03.123Z,15.70
2022-11-30T17:51:31.600Z,11.50
2022-11-30T17:53:59.882Z,20.00
2022-11-30T17:56:28.096Z,18.00
2022-11-30T17:58:56.228Z,20.20
2022-11-30T18:01:26.993Z,21.40
2022-11-30T18:03:56.069Z,18.10
2022-11-30T18:06:24.536Z,22.30
2022-11-30T18:08:52.827Z,23.60
2022-11-30T18:11:26.486Z,24.10
2022-11-30T18:13:57.061Z,24.30
2022-11-30T18:16:31.234Z,24.60
2022-11-30T18:19:00.240Z,25.30
2022-11-30T18:21:29.923Z,22.60
2022-11-30T18:23:59.077Z,16.00
2022-11-30T18:26:27.687Z,26.00
2022-11-30T18:28:58.560Z,24.90
2022-11-30T18:31:28.776Z,24.80
2022-11-30T18:33:59.580Z,22.50
2022-11-30T18:36:28.608Z,23.90
2022-11-30T18:38:57.943Z,22.60
2022-11-30T18:41:28.771Z,22.20
2022-11-30T18:43:58.225Z,21.70
2022-11-30T18:46:27.357Z,23.00
2022-11-30T18:48:56.631Z,21.70
2022-11-30T18:51:31.088Z,22.50
2022-11-30T18:54:02.096Z,25.40
2022-11-30T18:56:32.759Z,27.90
2022-11-30T18:59:03.880Z,19.50
2022-11-30T19:01:33.128Z,15.60
2022-11-30T19:04:04.248Z,24.10
2022-11-30T19:06:34.125Z,16.50
2022-11-30T19:09:08.575Z,23.70
2022-11-30T19:11:38.585Z,20.50
2022-11-30T19:14:07.810Z,23.60
2022-11-30T19:16:36.582Z,23.40
2022-11-30T19:19:07.841Z,20.50
2022-11-30T19:21:36.204Z,23.20
2022-11-30T19:24:04.898Z,20.30
2022-11-30T19:26:33.386Z,21.80
2022-11-30T19:29:01.927Z,25.00
2022-11-30T19:31:30.142Z,26.60
2022-11-30T19:33:58.570Z,26.90
2022-11-30T19:36:30.347Z,29.00
2022-11-30T19:39:00.339Z,28.80
2022-11-30T19:41:29.017Z,28.00
2022-11-30T19:44:03.647Z,28.80
2022-11-30T19:46:34.932Z,26.70
2022-11-30T19:49:03.693Z,27.80
2022-11-30T19:51:32.183Z,26.20
2022-11-30T19:54:02.083Z,26.70
2022-11-30T19:56:32.519Z,26.10
2022-11-30T19:59:05.309Z,23.80
2022-11-30T20:01:34.933Z,28.30
2022-11-30T20:04:06.071Z,23.80
2022-11-30T20:06:37.725Z,22.20
2022-11-30T20:09:08.223Z,23.50
2022-11-30T20:11:37.127Z,24.10
2022-11-30T20:14:05.708Z,22.90
2022-11-30T20:16:34.021Z,21.30
2022-11-30T20:19:02.959Z,24.00
2022-11-30T20:21:34.645Z,26.40
2022-11-30T20:24:06.404Z,28.90
2022-11-30T20:26:37.929Z,26.00
2022-11-30T20:29:08.424Z,25.50
2022-11-30T20:31:37.055Z,27.30
2022-11-30T20:34:06.153Z,28.40
2022-11-30T20:36:35.128Z,29.70
2022-11-30T20:39:04.478Z,25.50
2022-11-30T20:41:34.261Z,28.00
2022-11-30T20:44:03.406Z,26.10
2022-11-30T20:46:34.365Z,27.40
2022-11-30T20:49:04.444Z,25.80
2022-11-30T20:51:35.222Z,23.30
2022-11-30T20:54:07.139Z,22.40
2022-11-30T20:56:37.386Z,24.40
2022-11-30T20:59:17.038Z,22.70
2022-11-30T21:01:47.288Z,23.00
2022-11-30T21:04:15.478Z,24.00
2022-11-30T21:06:45.924Z,20.80
2022-11-30T21:09:15.487Z,20.10
2022-11-30T21:11:44.777Z,22.60
2022-11-30T21:14:13.405Z,21.90
2022-11-30T21:16:41.699Z,22.50
2022-11-30T21:19:12.081Z,25.80
2022-11-30T21:21:40.396Z,22.60
2022-11-30T21:24:11.241Z,24.70
2022-11-30T21:26:42.087Z,22.10
2022-11-30T21:29:16.003Z,21.50
2022-11-30T21:31:45.079Z,25.00
2022-11-30T21:34:13.744Z,23.20
2022-11-30T21:36:42.339Z,22.80
2022-11-30T21:39:14.362Z,23.00
2022-11-30T21:41:42.723Z,22.60
2022-11-30T21:44:13.236Z,23.90
2022-11-30T21:46:42.022Z,26.50
2022-11-30T21:49:10.544Z,28.50
2022-11-30T21:51:39.295Z,26.50
2022-11-30T21:54:11.939Z,24.00
2022-11-30T21:56:41.096Z,28.80
2022-11-30T21:59:11.471Z,27.10
2022-11-30T22:01:42.817Z,29.90
2022-11-30T22:04:13.081Z,31.10
2022-11-30T22:06:42.542Z,34.70
2022-11-30T22:09:14.090Z,29.40
2022-11-30T22:11:45.276Z,30.60
2022-11-30T22:14:16.746Z,33.60
2022-11-30T22:16:45.771Z,34.30
2022-11-30T22:19:13.909Z,36.70
2022-11-30T22:21:48.263Z,33.20
2022-11-30T22:24:18.423Z,34.60
2022-11-30T22:26:49.229Z,36.00
2022-11-30T22:29:23.057Z,36.50
2022-11-30T22:31:53.845Z,34.90
2022-11-30T22:34:21.919Z,32.00
2022-11-30T22:36:49.987Z,29.10
2022-11-30T22:39:20.650Z,26.80
2022-11-30T22:41:55.062Z,26.30
2022-11-30T22:44:26.119Z,26.40
2022-11-30T22:46:54.551Z,22.50
2022-11-30T22:49:23.013Z,21.80
2022-11-30T22:51:51.567Z,22.50
2022-11-30T22:54:19.850Z,20.90
2022-11-30T22:56:48.044Z,26.50
2022-11-30T22:59:16.396Z,23.60
2022-11-30T23:01:46.774Z,25.20
2022-11-30T23:04:18.522Z,25.70
2022-11-30T23:06:48.320Z,25.50
2022-11-30T23:09:20.565Z,25.00
2022-11-30T23:11:49.405Z,25.70
2022-11-30T23:14:18.190Z,27.30
2022-11-30T23:16:46.369Z,27.60
2022-11-30T23:19:15.751Z,26.20
2022-11-30T23:21:47.211Z,25.00
2022-11-30T23:24:20.346Z,22.40
2022-11-30T23:26:48.675Z,19.20
2022-11-30T23:29:17.582Z,21.70
2022-11-30T23:31:46.511Z,21.40
2022-11-30T23:34:18.391Z,22.40
2022-11-30T23:36:47.310Z,21.70
2022-11-30T23:39:18.673Z,21.10
2022-11-30T23:41:47.411Z,20.00
2022-11-30T23:44:15.805Z,19.90
2022-11-30T23:46:44.459Z,21.30
2022-11-30T23:49:14.401Z,19.60
2022-11-30T23:51:43.274Z,19.30
2022-11-30T23:54:11.945Z,21.80
2022-11-30T23:56:40.171Z,21.40
2022-11-30T23:59:08.552Z,20.20
